Time;durP1;ratioP1;P1;durP2;ratioP2;P2;SDS_P1;SDS_P2;PMS_P1;PMS_P2;Temp;Humidity;BMP_temperature;BMP_pressure;BME280_temperature;BME280_humidity;BME280_pressure;Samples;Min_cycle;Max_cycle;Signal;HPM_P1;HPM_P2
2022/04/08 00:02:16;;;;;;;120.95;58.40;;;7.20;99.90;;;;;;5093928;28;20397;-53
2022/04/08 00:04:51;;;;;;;109.15;53.22;;;7.20;99.90;;;;;;5076334;28;20487;-53
2022/04/08 00:07:17;;;;;;;126.57;56.83;;;7.20;99.90;;;;;;5094301;28;20107;-53
2022/04/08 00:09:43;;;;;;;104.82;51.45;;;7.10;99.90;;;;;;5094464;28;20035;-53
2022/04/08 00:12:09;;;;;;;92.78;45.63;;;7.10;99.90;;;;;;5094010;28;20077;-53
2022/04/08 00:14:36;;;;;;;99.28;49.15;;;7.00;99.90;;;;;;5094368;28;20103;-54
2022/04/08 00:17:02;;;;;;;106.93;53.08;;;7.00;99.90;;;;;;5094242;28;20056;-54
2022/04/08 00:19:28;;;;;;;127.32;57.25;;;7.00;99.90;;;;;;5093974;28;20461;-53
2022/04/08 00:21:54;;;;;;;111.43;53.08;;;6.90;99.90;;;;;;5094206;28;20032;-53
2022/04/08 00:24:20;;;;;;;111.32;52.65;;;6.90;99.90;;;;;;5094131;28;20024;-53
2022/04/08 00:26:47;;;;;;;114.88;53.28;;;6.90;99.90;;;;;;5094192;28;20055;-53
2022/04/08 00:29:16;;;;;;;107.65;51.10;;;6.80;99.90;;;;;;5075899;28;20336;-53
2022/04/08 00:31:43;;;;;;;105.10;48.93;;;6.80;99.90;;;;;;5093990;28;20040;-53
2022/04/08 00:34:09;;;;;;;87.78;44.75;;;6.80;99.90;;;;;;5093958;28;20058;-53
2022/04/08 00:36:35;;;;;;;103.80;46.38;;;6.80;99.90;;;;;;5094234;28;20028;-54
2022/04/08 00:39:00;;;;;;;85.43;42.85;;;6.80;99.90;;;;;;5093959;28;20016;-54
2022/04/08 00:41:26;;;;;;;89.93;39.92;;;6.80;99.90;;;;;;5093834;28;20402;-53
2022/04/08 00:43:52;;;;;;;82.65;40.13;;;6.80;99.90;;;;;;5094040;28;20142;-53
2022/04/08 00:46:18;;;;;;;79.15;39.95;;;6.70;99.90;;;;;;5093751;28;20066;-53
2022/04/08 00:48:44;;;;;;;81.25;41.08;;;6.70;99.90;;;;;;5093990;28;20085;-53
2022/04/08 00:51:12;;;;;;;73.07;37.10;;;6.70;99.90;;;;;;5093758;28;20386;-53
2022/04/08 00:53:39;;;;;;;79.13;39.35;;;6.60;99.90;;;;;;5094000;28;20358;-53
2022/04/08 00:56:05;;;;;;;89.70;41.97;;;6.60;99.90;;;;;;5093820;28;20022;-54
2022/04/08 00:58:32;;;;;;;127.68;51.45;;;6.60;99.90;;;;;;5093908;28;20082;-53
2022/04/08 01:00:58;;;;;;;98.95;44.53;;;6.60;99.90;;;;;;5094089;28;20020;-53
2022/04/08 01:03:24;;;;;;;89.43;40.05;;;6.60;99.90;;;;;;5096863;28;20077;-54
2022/04/08 01:05:50;;;;;;;77.43;37.83;;;6.60;99.90;;;;;;5098050;28;20028;-53
2022/04/08 01:08:17;;;;;;;70.28;34.72;;;6.60;99.90;;;;;;5097418;28;20059;-53
2022/04/08 01:10:44;;;;;;;66.57;32.47;;;6.60;99.90;;;;;;5097936;28;20047;-53
2022/04/08 01:13:10;;;;;;;58.10;31.58;;;6.60;99.90;;;;;;5097527;28;20035;-53
2022/04/08 01:15:36;;;;;;;55.95;28.58;;;6.50;99.90;;;;;;5097788;28;20129;-54
2022/04/08 01:18:05;;;;;;;64.28;32.67;;;6.50;99.90;;;;;;5097941;28;20031;-53
2022/04/08 01:20:32;;;;;;;61.05;31.52;;;6.40;99.90;;;;;;5097532;28;20031;-53
2022/04/08 01:22:58;;;;;;;79.45;35.95;;;6.30;99.90;;;;;;5097508;28;20097;-53
2022/04/08 01:25:24;;;;;;;74.53;35.17;;;6.10;99.90;;;;;;5097526;28;20028;-53
2022/04/08 01:27:50;;;;;;;61.08;31.98;;;6.10;99.90;;;;;;5097395;28;20021;-53
2022/04/08 01:30:16;;;;;;;77.03;37.80;;;6.00;99.90;;;;;;5097442;28;20020;-53
2022/04/08 01:32:43;;;;;;;67.43;34.92;;;6.00;99.90;;;;;;5097450;28;20024;-53
2022/04/08 01:35:09;;;;;;;70.85;35.55;;;6.10;99.90;;;;;;5097138;28;20031;-53
2022/04/08 01:37:35;;;;;;;82.35;41.92;;;6.10;99.90;;;;;;5097227;28;20024;-53
2022/04/08 01:40:02;;;;;;;72.78;37.50;;;6.10;99.90;;;;;;5097409;28;20034;-53
2022/04/08 01:42:28;;;;;;;73.50;35.55;;;6.10;99.90;;;;;;5096932;28;20040;-53
2022/04/08 01:44:55;;;;;;;73.63;34.95;;;6.00;99.90;;;;;;5097135;28;20049;-53
2022/04/08 01:47:22;;;;;;;78.95;37.38;;;6.00;99.90;;;;;;5097023;28;20493;-53
2022/04/08 01:49:49;;;;;;;69.90;36.47;;;6.00;99.90;;;;;;5097453;28;20106;-53
2022/04/08 01:52:15;;;;;;;90.22;43.95;;;6.00;99.90;;;;;;5096873;28;20024;-53
2022/04/08 01:54:41;;;;;;;83.88;42.15;;;6.00;99.90;;;;;;5096996;28;20027;-53
2022/04/08 01:57:07;;;;;;;91.30;45.38;;;6.00;99.90;;;;;;5096736;28;20077;-53
2022/04/08 01:59:33;;;;;;;108.15;49.88;;;6.00;99.90;;;;;;5096997;28;20036;-53
2022/04/08 02:01:59;;;;;;;83.05;41.30;;;6.00;99.90;;;;;;5097052;28;20024;-53
2022/04/08 02:04:26;;;;;;;80.28;38.38;;;5.90;99.90;;;;;;5096558;28;20027;-53
2022/04/08 02:06:52;;;;;;;62.83;34.20;;;6.00;99.90;;;;;;5096677;28;20470;-53
2022/04/08 02:09:19;;;;;;;74.43;34.58;;;5.90;99.90;;;;;;5096498;28;20032;-53
2022/04/08 02:11:45;;;;;;;67.90;36.47;;;5.90;99.90;;;;;;5096610;28;20465;-53
2022/04/08 02:14:11;;;;;;;67.00;34.83;;;6.00;99.90;;;;;;5095122;28;20565;-53
2022/04/08 02:16:37;;;;;;;67.53;33.33;;;6.00;99.90;;;;;;5096549;28;20040;-53
2022/04/08 02:19:03;;;;;;;69.93;33.97;;;6.00;99.90;;;;;;5096535;28;20554;-53
2022/04/08 02:21:30;;;;;;;68.63;34.33;;;6.00;99.90;;;;;;5096665;28;20035;-53
2022/04/08 02:23:56;;;;;;;64.88;34.55;;;5.90;99.90;;;;;;5096488;28;20081;-53
2022/04/08 02:26:22;;;;;;;80.95;41.17;;;5.90;99.90;;;;;;5096141;28;20032;-53
2022/04/08 02:28:48;;;;;;;80.03;39.05;;;5.80;99.90;;;;;;5096392;28;20099;-53
2022/04/08 02:31:14;;;;;;;73.63;36.83;;;5.80;99.90;;;;;;5095832;28;20032;-53
2022/04/08 02:33:40;;;;;;;68.32;33.42;;;5.90;99.90;;;;;;5096228;28;20020;-53
2022/04/08 02:36:07;;;;;;;60.10;31.80;;;5.90;99.90;;;;;;5096138;28;20036;-53
2022/04/08 02:38:33;;;;;;;60.47;29.77;;;6.00;99.90;;;;;;5096013;28;20028;-53
2022/04/08 02:40:59;;;;;;;65.90;31.30;;;6.00;99.90;;;;;;5096068;28;20559;-53
2022/04/08 02:43:25;;;;;;;62.30;31.35;;;5.90;99.90;;;;;;5095769;28;20456;-53
2022/04/08 02:45:51;;;;;;;64.70;31.95;;;5.90;99.90;;;;;;5096183;28;20020;-53
2022/04/08 02:48:18;;;;;;;63.63;33.00;;;5.90;99.90;;;;;;5095736;28;20400;-53
2022/04/08 02:50:45;;;;;;;68.57;33.55;;;5.90;99.90;;;;;;5095905;28;20059;-53
2022/04/08 02:53:11;;;;;;;57.40;29.42;;;5.90;99.90;;;;;;5095520;28;20039;-54
2022/04/08 02:55:37;;;;;;;54.67;28.83;;;5.80;99.90;;;;;;5095728;28;20017;-53
2022/04/08 02:58:03;;;;;;;52.92;27.30;;;5.80;99.90;;;;;;5095744;28;20032;-53
2022/04/08 03:00:29;;;;;;;51.35;27.85;;;5.80;99.90;;;;;;5095636;28;20027;-53
2022/04/08 03:02:55;;;;;;;64.22;30.35;;;5.80;99.90;;;;;;5095461;28;20020;-53
2022/04/08 03:05:22;;;;;;;65.88;32.03;;;5.80;99.90;;;;;;5095636;28;20024;-53
2022/04/08 03:07:48;;;;;;;55.47;31.13;;;5.80;99.90;;;;;;5095579;28;20053;-53
2022/04/08 03:10:14;;;;;;;60.65;32.33;;;5.90;99.90;;;;;;5095288;28;20024;-53
2022/04/08 03:12:40;;;;;;;61.88;31.02;;;5.90;99.90;;;;;;5095519;28;20073;-53
2022/04/08 03:15:07;;;;;;;61.72;29.52;;;5.90;99.90;;;;;;5095379;28;20057;-53
2022/04/08 03:17:36;;;;;;;61.35;30.35;;;5.80;99.90;;;;;;5095294;28;20097;-53
2022/04/08 03:20:03;;;;;;;68.70;32.30;;;5.90;99.90;;;;;;5095243;28;20487;-53
2022/04/08 03:22:29;;;;;;;63.53;31.58;;;5.90;99.90;;;;;;5095268;28;20051;-53
2022/04/08 03:24:55;;;;;;;62.10;30.15;;;5.80;99.90;;;;;;5094950;28;20036;-53
2022/04/08 03:27:21;;;;;;;59.83;29.77;;;5.80;99.90;;;;;;5095173;28;20032;-53
2022/04/08 03:29:50;;;;;;;54.35;29.50;;;5.80;99.90;;;;;;5095220;28;20501;-53
2022/04/08 03:32:16;;;;;;;59.17;29.33;;;5.70;99.90;;;;;;5094714;28;20057;-53
2022/04/08 03:34:42;;;;;;;55.97;29.52;;;5.70;99.90;;;;;;5095033;28;20080;-53
2022/04/08 03:37:09;;;;;;;60.15;32.40;;;5.70;99.90;;;;;;5094802;28;20039;-53
2022/04/08 03:39:35;;;;;;;54.72;29.90;;;5.70;99.90;;;;;;5094930;28;20012;-53
2022/04/08 03:42:01;;;;;;;59.88;29.00;;;5.70;99.90;;;;;;5095016;28;20154;-53
2022/04/08 03:44:27;;;;;;;49.58;26.92;;;5.80;99.90;;;;;;5094561;28;20031;-53
2022/04/08 03:46:53;;;;;;;54.90;29.10;;;5.80;99.90;;;;;;5094710;28;20043;-53
2022/04/08 03:49:21;;;;;;;50.95;27.15;;;5.90;99.90;;;;;;5094728;28;20055;-53
2022/04/08 03:51:47;;;;;;;56.00;26.88;;;5.90;99.90;;;;;;5094788;28;20054;-53
2022/04/08 03:54:13;;;;;;;56.85;28.65;;;5.80;99.90;;;;;;5094489;28;20024;-53
2022/04/08 03:56:43;;;;;;;54.05;27.20;;;5.90;99.90;;;;;;5094826;28;20028;-53
2022/04/08 03:59:10;;;;;;;58.15;27.75;;;5.80;99.90;;;;;;5094378;28;20021;-53
2022/04/08 04:01:36;;;;;;;49.67;26.27;;;5.80;99.90;;;;;;5094708;28;20525;-53
2022/04/08 04:04:06;;;;;;;50.38;26.10;;;5.70;99.90;;;;;;5094390;28;20036;-53
2022/04/08 04:06:31;;;;;;;68.00;35.97;;;5.60;99.90;;;;;;5094529;28;20043;-54
2022/04/08 04:08:58;;;;;;;64.75;33.50;;;5.60;99.90;;;;;;5094468;28;20028;-53
2022/04/08 04:11:25;;;;;;;59.38;30.70;;;5.80;99.90;;;;;;5094076;28;20028;-53
2022/04/08 04:13:51;;;;;;;57.85;30.35;;;5.80;99.90;;;;;;5094280;28;20024;-53
2022/04/08 04:16:17;;;;;;;51.30;28.98;;;5.90;99.90;;;;;;5094304;28;20044;-53
2022/04/08 04:18:42;;;;;;;64.03;31.05;;;5.90;99.90;;;;;;5094161;28;20381;-53
2022/04/08 04:21:08;;;;;;;63.05;31.60;;;5.90;99.90;;;;;;5094009;28;20082;-53
2022/04/08 04:23:34;;;;;;;69.97;32.13;;;6.00;99.90;;;;;;5094559;28;20021;-53
2022/04/08 04:26:01;;;;;;;64.28;31.58;;;6.00;99.90;;;;;;5094169;28;20047;-53
2022/04/08 04:28:31;;;;;;;58.10;29.38;;;6.10;99.90;;;;;;5094130;28;20047;-53
2022/04/08 04:30:59;;;;;;;61.42;30.67;;;6.10;99.90;;;;;;5094095;28;20490;-53
2022/04/08 04:33:28;;;;;;;64.05;30.35;;;6.10;99.90;;;;;;5093763;28;20024;-53
2022/04/08 04:35:54;;;;;;;75.15;40.00;;;6.10;99.90;;;;;;5094136;28;20469;-53
2022/04/08 04:38:21;;;;;;;78.70;39.20;;;6.20;99.90;;;;;;5093113;28;20087;-53
2022/04/08 04:40:47;;;;;;;69.28;35.05;;;6.30;99.90;;;;;;5094036;28;20039;-53
2022/04/08 04:43:13;;;;;;;56.85;28.73;;;6.30;99.90;;;;;;5093776;28;20040;-53
2022/04/08 04:45:39;;;;;;;61.53;29.67;;;6.30;99.90;;;;;;5093910;28;20385;-53
2022/04/08 04:48:06;;;;;;;60.10;30.90;;;6.50;99.90;;;;;;5093693;28;20032;-53
2022/04/08 04:50:32;;;;;;;58.22;30.38;;;6.50;99.90;;;;;;5094067;28;20477;-53
2022/04/08 04:52:58;;;;;;;63.58;31.02;;;6.50;99.90;;;;;;5093931;28;20039;-53
2022/04/08 04:55:25;;;;;;;65.90;31.90;;;6.60;99.90;;;;;;5093585;28;20028;-53
2022/04/08 04:57:51;;;;;;;66.07;32.85;;;6.60;99.90;;;;;;5094147;28;20020;-53
2022/04/08 05:00:18;;;;;;;60.78;32.13;;;6.70;99.90;;;;;;5093660;28;20544;-53
2022/04/08 05:02:44;;;;;;;65.13;32.30;;;6.70;99.90;;;;;;5093627;28;20032;-53
2022/04/08 05:05:10;;;;;;;61.13;32.30;;;6.80;99.90;;;;;;5093634;28;20032;-53
2022/04/08 05:07:37;;;;;;;60.20;32.00;;;6.90;99.90;;;;;;5093685;28;20025;-53
2022/04/08 05:10:04;;;;;;;64.38;31.90;;;7.00;99.90;;;;;;5093706;28;20068;-53
2022/04/08 05:12:31;;;;;;;57.63;29.77;;;7.10;99.90;;;;;;5087182;28;20032;-53
2022/04/08 05:14:57;;;;;;;64.70;31.90;;;7.20;99.90;;;;;;5061787;28;20044;-54
2022/04/08 05:17:23;;;;;;;60.00;29.15;;;7.20;99.90;;;;;;5081554;28;20048;-53
2022/04/08 05:19:49;;;;;;;57.30;28.75;;;7.30;99.90;;;;;;5088642;28;20026;-54
2022/04/08 05:22:15;;;;;;;63.50;33.28;;;7.40;99.90;;;;;;5088653;28;20481;-53
2022/04/08 05:24:41;;;;;;;68.55;34.35;;;7.50;99.90;;;;;;5085323;28;20024;-53
2022/04/08 05:27:07;;;;;;;63.53;33.97;;;7.60;99.90;;;;;;5075245;28;20051;-53
2022/04/08 05:29:33;;;;;;;64.43;31.25;;;7.60;99.90;;;;;;5083118;28;20036;-54
2022/04/08 05:31:59;;;;;;;62.70;33.72;;;7.70;99.90;;;;;;5090104;28;20040;-53
2022/04/08 05:34:27;;;;;;;61.75;32.15;;;7.80;99.90;;;;;;5092937;28;20020;-53
2022/04/08 05:36:53;;;;;;;66.55;33.75;;;7.90;99.90;;;;;;5088140;28;20020;-53
2022/04/08 05:39:19;;;;;;;75.53;34.90;;;8.10;99.90;;;;;;5091882;28;20385;-53
2022/04/08 05:41:45;;;;;;;60.75;31.58;;;8.20;99.90;;;;;;5080667;28;20070;-54
2022/04/08 05:44:13;;;;;;;80.28;33.10;;;8.50;99.90;;;;;;5077511;28;20486;-53
2022/04/08 05:46:39;;;;;;;66.97;30.90;;;8.70;99.90;;;;;;5076888;28;20077;-53
2022/04/08 05:49:09;;;;;;;62.03;30.50;;;9.00;99.90;;;;;;5084018;28;20036;-53
2022/04/08 05:51:35;;;;;;;70.53;30.67;;;9.30;99.90;;;;;;5081322;28;20024;-52
2022/04/08 05:54:02;;;;;;;63.83;28.02;;;9.60;99.90;;;;;;5083743;28;20040;-53
2022/04/08 05:56:29;;;;;;;76.45;36.15;;;9.80;99.90;;;;;;5085143;28;20035;-53
2022/04/08 05:58:57;;;;;;;52.72;28.67;;;10.00;99.90;;;;;;5080722;28;20370;-53
2022/04/08 06:01:23;;;;;;;63.78;30.75;;;10.20;99.90;;;;;;5082315;28;20436;-53
2022/04/08 06:03:49;;;;;;;60.72;30.75;;;10.40;99.90;;;;;;5087091;28;20032;-53
2022/04/08 06:06:15;;;;;;;86.95;32.75;;;10.60;99.90;;;;;;5090576;28;20032;-53
2022/04/08 06:08:41;;;;;;;70.55;32.40;;;10.80;99.90;;;;;;5092407;28;20056;-53
2022/04/08 06:11:07;;;;;;;64.55;29.05;;;11.00;99.90;;;;;;5091943;28;20054;-53
2022/04/08 06:13:33;;;;;;;61.28;27.92;;;11.20;99.90;;;;;;5085465;28;20048;-52
2022/04/08 06:15:59;;;;;;;62.22;28.10;;;11.60;99.90;;;;;;5092405;28;20055;-53
2022/04/08 06:18:25;;;;;;;57.65;28.35;;;11.80;99.90;;;;;;5086860;28;20028;-53
2022/04/08 06:20:51;;;;;;;65.00;29.73;;;12.00;99.90;;;;;;5090739;28;20024;-53
2022/04/08 06:23:17;;;;;;;75.13;33.03;;;12.20;99.90;;;;;;5090197;28;20042;-53
2022/04/08 06:25:43;;;;;;;66.10;29.15;;;12.60;99.90;;;;;;5085097;28;20232;-53
2022/04/08 06:28:09;;;;;;;69.22;28.42;;;12.90;99.90;;;;;;5080332;28;20475;-53
2022/04/08 06:30:37;;;;;;;71.32;31.38;;;13.10;99.90;;;;;;5089856;28;20032;-53
2022/04/08 06:33:04;;;;;;;59.28;27.15;;;13.30;99.90;;;;;;5089641;28;20412;-53
2022/04/08 06:35:30;;;;;;;58.03;25.98;;;13.60;99.90;;;;;;5082785;28;20879;-53
2022/04/08 06:38:01;;;;;;;55.65;26.90;;;14.10;99.90;;;;;;5085592;28;20399;-53
2022/04/08 06:40:27;;;;;;;65.70;26.70;;;14.40;99.90;;;;;;5081683;28;20037;-53
2022/04/08 06:42:59;;;;;;;47.92;24.73;;;14.70;99.90;;;;;;5087432;28;20097;-53
2022/04/08 06:45:29;;;;;;;55.58;24.90;;;14.80;99.90;;;;;;5080313;28;20123;-53
2022/04/08 06:47:55;;;;;;;49.83;22.77;;;14.90;99.90;;;;;;5086997;28;20166;-53
2022/04/08 06:50:21;;;;;;;60.75;26.33;;;15.20;99.90;;;;;;5084720;28;20043;-53
2022/04/08 06:52:50;;;;;;;60.08;26.48;;;15.50;99.90;;;;;;5090244;28;20032;-53
2022/04/08 06:55:16;;;;;;;57.40;29.40;;;15.80;99.90;;;;;;5083366;28;20032;-53
2022/04/08 06:57:42;;;;;;;59.13;30.05;;;16.20;99.90;;;;;;5087166;28;20035;-53
2022/04/08 07:00:11;;;;;;;41.47;21.48;;;16.70;99.90;;;;;;5075359;28;20020;-53
2022/04/08 07:02:38;;;;;;;39.78;19.65;;;17.00;98.30;;;;;;5084066;28;20462;-53
2022/04/08 07:05:05;;;;;;;39.50;15.70;;;17.20;95.90;;;;;;5087854;28;20043;-53
2022/04/08 07:07:35;;;;;;;46.53;20.05;;;17.40;95.90;;;;;;5089373;28;20028;-53
2022/04/08 07:10:02;;;;;;;46.72;20.40;;;17.80;94.90;;;;;;5090040;28;20028;-53
2022/04/08 07:12:28;;;;;;;32.65;14.20;;;18.30;95.60;;;;;;5087135;28;20537;-53
2022/04/08 07:14:55;;;;;;;41.28;15.82;;;18.60;91.10;;;;;;5086897;28;20020;-53
2022/04/08 07:17:35;;;;;;;23.75;11.73;;;18.90;89.30;;;;;;5061204;28;20059;-53
2022/04/08 07:20:04;;;;;;;35.15;13.43;;;19.40;82.00;;;;;;5059749;28;20017;-53
2022/04/08 07:22:30;;;;;;;22.73;10.02;;;19.70;86.60;;;;;;5069859;28;20044;-53
2022/04/08 07:24:58;;;;;;;24.67;9.40;;;19.90;78.00;;;;;;5062248;28;20073;-53
2022/04/08 07:27:24;;;;;;;23.75;8.95;;;20.20;81.40;;;;;;5062784;28;20039;-53
2022/04/08 07:29:51;;;;;;;18.67;8.93;;;20.40;64.70;;;;;;5062431;28;20067;-53
2022/04/08 07:32:20;;;;;;;19.00;7.97;;;20.30;64.50;;;;;;5059870;28;20039;-53
2022/04/08 07:34:53;;;;;;;26.75;10.65;;;20.50;69.20;;;;;;5069527;28;20029;-53
2022/04/08 07:37:32;;;;;;;12.77;7.25;;;20.60;72.60;;;;;;5060190;28;20078;-53
2022/04/08 07:39:58;;;;;;;18.58;7.80;;;21.00;56.90;;;;;;5063325;28;20124;-53
2022/04/08 07:42:25;;;;;;;15.40;7.35;;;21.00;61.00;;;;;;5069951;28;20600;-53
2022/04/08 07:44:52;;;;;;;17.05;8.18;;;21.30;61.20;;;;;;5066490;28;20027;-53
2022/04/08 07:47:19;;;;;;;11.32;7.43;;;21.70;61.00;;;;;;5063758;28;20025;-53
2022/04/08 07:49:47;;;;;;;15.55;7.03;;;21.80;55.80;;;;;;5070294;28;20461;-53
2022/04/08 07:52:13;;;;;;;16.65;7.13;;;22.00;63.50;;;;;;5061910;28;20068;-53
2022/04/08 07:54:50;;;;;;;10.00;6.18;;;22.10;53.00;;;;;;5064499;28;20025;-53
2022/04/08 07:57:26;;;;;;;11.52;5.32;;;22.00;54.90;;;;;;5065852;28;20061;-53
2022/04/08 07:59:56;;;;;;;8.93;3.92;;;22.00;54.40;;;;;;5061491;28;20656;-53
2022/04/08 08:02:23;;;;;;;4.82;2.55;;;22.00;54.00;;;;;;5063038;28;20087;-53
2022/04/08 08:04:49;;;;;;;17.15;5.47;;;22.00;50.30;;;;;;5064801;28;20052;-53
2022/04/08 08:07:15;;;;;;;9.60;3.00;;;22.10;55.20;;;;;;5061325;28;20102;-53
2022/04/08 08:09:41;;;;;;;14.75;4.15;;;22.40;52.90;;;;;;5059927;28;20119;-53
2022/04/08 08:12:10;;;;;;;8.02;2.13;;;22.40;51.70;;;;;;5060224;28;20111;-53
2022/04/08 08:14:37;;;;;;;4.53;2.10;;;22.30;47.90;;;;;;5064472;28;20024;-53
2022/04/08 08:17:04;;;;;;;11.95;2.10;;;22.30;50.80;;;;;;5069739;28;20074;-53
2022/04/08 08:19:31;;;;;;;8.50;1.77;;;22.40;50.40;;;;;;5079029;28;20012;-53
2022/04/08 08:21:57;;;;;;;9.43;3.10;;;22.50;48.80;;;;;;5094212;28;20613;-53
2022/04/08 08:24:23;;;;;;;8.05;2.70;;;22.60;49.60;;;;;;5093853;28;20039;-53
2022/04/08 08:26:53;;;;;;;6.28;2.25;;;22.40;46.90;;;;;;5094773;28;20028;-53
2022/04/08 08:29:22;;;;;;;6.43;2.00;;;22.60;50.60;;;;;;5094462;28;20485;-53
2022/04/08 08:31:48;;;;;;;8.70;2.97;;;22.90;48.60;;;;;;5094553;28;20032;-53
2022/04/08 08:34:14;;;;;;;5.38;1.95;;;22.90;49.60;;;;;;5094779;28;20032;-53
2022/04/08 08:36:57;;;;;;;3.28;1.48;;;23.00;45.30;;;;;;5094770;28;20024;-53
2022/04/08 08:39:27;;;;;;;18.80;3.20;;;23.20;44.10;;;;;;5094145;28;20492;-53
2022/04/08 08:41:55;;;;;;;7.63;1.92;;;23.50;48.40;;;;;;5094804;28;20032;-53
2022/04/08 08:44:22;;;;;;;8.13;2.10;;;23.80;45.90;;;;;;5082856;28;20034;-53
2022/04/08 08:46:49;;;;;;;7.30;2.13;;;23.80;44.10;;;;;;5077542;28;20059;-53
2022/04/08 08:49:19;;;;;;;11.00;2.88;;;24.10;46.20;;;;;;5087013;28;20473;-53
2022/04/08 08:52:01;;;;;;;9.60;2.80;;;24.10;42.10;;;;;;5089608;28;20028;-53
2022/04/08 08:54:27;;;;;;;4.53;1.50;;;23.90;44.40;;;;;;5093269;28;20028;-53
2022/04/08 08:56:53;;;;;;;4.47;1.83;;;24.10;42.80;;;;;;5093630;28;20063;-53
2022/04/08 08:59:19;;;;;;;4.00;1.55;;;24.40;42.10;;;;;;5093291;28;20020;-53
2022/04/08 09:01:45;;;;;;;5.57;2.28;;;24.20;41.10;;;;;;5093731;28;20050;-53
2022/04/08 09:04:22;;;;;;;6.20;2.30;;;23.90;45.90;;;;;;5093814;28;20035;-53
2022/04/08 09:06:55;;;;;;;6.32;1.77;;;24.30;43.20;;;;;;5092552;28;20031;-53
2022/04/08 09:09:31;;;;;;;11.85;2.83;;;24.10;39.90;;;;;;5087816;28;20492;-53
2022/04/08 09:12:14;;;;;;;8.77;1.90;;;24.00;43.20;;;;;;5072217;28;20032;-53
2022/04/08 09:14:50;;;;;;;3.88;1.45;;;24.00;43.20;;;;;;5084990;28;20028;-53
2022/04/08 09:17:21;;;;;;;6.90;2.22;;;24.10;43.10;;;;;;5093308;28;20056;-53
2022/04/08 09:19:55;;;;;;;8.88;2.63;;;24.10;40.10;;;;;;5091961;28;20032;-53
2022/04/08 09:22:24;;;;;;;9.48;2.90;;;24.00;42.00;;;;;;5075394;28;20032;-53
2022/04/08 09:24:51;;;;;;;9.35;3.17;;;23.80;39.60;;;;;;5090963;28;20086;-53
2022/04/08 09:27:17;;;;;;;15.85;2.95;;;23.80;41.50;;;;;;5097217;28;20378;-53
2022/04/08 09:29:44;;;;;;;4.57;1.80;;;24.20;40.40;;;;;;5094977;28;20111;-53
2022/04/08 09:32:15;;;;;;;6.15;2.20;;;24.20;40.40;;;;;;5097399;28;20317;-53
2022/04/08 09:34:42;;;;;;;8.70;1.80;;;24.60;41.00;;;;;;5089582;28;20027;-53
2022/04/08 09:37:15;;;;;;;10.40;2.58;;;24.70;38.70;;;;;;5091784;28;20209;-53
2022/04/08 09:39:59;;;;;;;7.68;1.83;;;24.40;38.80;;;;;;5092029;28;20023;-53
2022/04/08 09:42:44;;;;;;;17.50;4.25;;;24.50;39.90;;;;;;5082159;28;20107;-53
2022/04/08 09:45:12;;;;;;;10.90;3.65;;;24.90;37.90;;;;;;5091365;28;20473;-53
2022/04/08 09:47:38;;;;;;;7.93;1.65;;;25.10;39.40;;;;;;5097827;28;20020;-53
2022/04/08 09:50:07;;;;;;;7.25;1.90;;;25.20;38.60;;;;;;5092647;28;20416;-53
2022/04/08 09:52:34;;;;;;;5.75;1.95;;;25.10;37.50;;;;;;5091487;28;20119;-53
2022/04/08 09:55:12;;;;;;;18.42;4.15;;;25.10;36.60;;;;;;5080089;28;20024;-53
2022/04/08 09:57:51;;;;;;;5.07;2.00;;;25.50;37.50;;;;;;5097555;28;20588;-53
2022/04/08 10:00:18;;;;;;;2.95;1.98;;;25.50;39.00;;;;;;5096777;28;20606;-53
2022/04/08 10:02:50;;;;;;;5.18;2.00;;;26.00;36.50;;;;;;5097854;28;20020;-53
2022/04/08 10:05:16;;;;;;;9.35;2.25;;;26.00;35.20;;;;;;5092728;28;20067;-53
2022/04/08 10:07:46;;;;;;;10.85;3.40;;;25.70;35.40;;;;;;5096571;28;20043;-53
2022/04/08 10:10:40;;;;;;;10.63;3.17;;;25.90;34.90;;;;;;5091626;28;20028;-53
2022/04/08 10:13:27;;;;;;;2.95;1.33;;;26.00;34.30;;;;;;5092848;28;20035;-53
2022/04/08 10:16:16;;;;;;;7.40;1.83;;;25.90;35.50;;;;;;5078808;28;20086;-53
2022/04/08 10:18:44;;;;;;;6.72;1.63;;;26.20;34.30;;;;;;5095894;28;20028;-53
2022/04/08 10:21:20;;;;;;;19.10;3.38;;;26.30;34.30;;;;;;5094620;28;20024;-53
2022/04/08 10:23:51;;;;;;;8.15;2.17;;;26.70;35.10;;;;;;5091007;28;20021;-53
2022/04/08 10:26:26;;;;;;;4.10;1.60;;;26.40;34.40;;;;;;5090507;28;20024;-53
2022/04/08 10:28:55;;;;;;;3.10;1.60;;;26.30;36.00;;;;;;5092212;28;20024;-53
2022/04/08 10:31:28;;;;;;;9.05;2.30;;;27.10;36.30;;;;;;5092982;28;20024;-53
2022/04/08 10:34:02;;;;;;;8.57;2.13;;;27.10;33.80;;;;;;5090294;28;20053;-53
2022/04/08 10:36:38;;;;;;;3.33;1.27;;;27.30;34.90;;;;;;5094991;28;20422;-53
2022/04/08 10:39:26;;;;;;;10.80;2.42;;;26.90;32.20;;;;;;5094337;28;20020;-53
2022/04/08 10:41:58;;;;;;;3.00;1.50;;;26.90;33.10;;;;;;5091840;28;20106;-53
2022/04/08 10:44:44;;;;;;;3.88;1.15;;;26.70;35.10;;;;;;5089774;28;20453;-53
2022/04/08 10:47:14;;;;;;;7.10;1.90;;;26.60;32.20;;;;;;5091093;28;20081;-53
2022/04/08 10:49:52;;;;;;;;;;;26.70;32.60;;;;;;5092348;28;20024;-53
2022/04/08 10:52:26;;;;;;;2.47;1.23;;;27.40;31.10;;;;;;5089204;28;20847;-53
2022/04/08 10:55:05;;;;;;;3.78;1.10;;;27.80;32.40;;;;;;5091038;28;20072;-53
2022/04/08 10:57:38;;;;;;;5.78;2.05;;;27.90;31.90;;;;;;5094701;28;20077;-53
2022/04/08 11:00:07;;;;;;;2.65;1.38;;;27.20;31.80;;;;;;5094289;28;20012;-53
2022/04/08 11:02:42;;;;;;;3.28;1.20;;;26.90;32.60;;;;;;5092110;28;20044;-53
2022/04/08 11:05:35;;;;;;;11.23;2.53;;;26.80;32.10;;;;;;5093780;28;20064;-53
2022/04/08 11:08:04;;;;;;;3.95;1.52;;;26.60;34.20;;;;;;5080495;28;20060;-53
2022/04/08 11:10:31;;;;;;;8.93;1.92;;;26.40;35.00;;;;;;5088366;28;20024;-53
2022/04/08 11:13:00;;;;;;;5.00;1.85;;;26.20;34.90;;;;;;5081534;28;20075;-53
2022/04/08 11:15:30;;;;;;;7.60;2.40;;;27.00;36.20;;;;;;5092036;28;20038;-53
2022/04/08 11:18:00;;;;;;;5.43;1.75;;;26.90;34.90;;;;;;5091716;28;20036;-53
2022/04/08 11:20:26;;;;;;;3.20;1.73;;;26.70;35.30;;;;;;5095878;28;20099;-53
2022/04/08 11:22:54;;;;;;;22.77;5.43;;;26.60;35.10;;;;;;5087672;28;20030;-53
2022/04/08 11:25:25;;;;;;;6.03;1.90;;;26.10;36.10;;;;;;5094623;28;20032;-53
2022/04/08 11:28:12;;;;;;;6.60;1.90;;;25.50;35.60;;;;;;5090092;28;20536;-53
2022/04/08 11:30:39;;;;;;;9.88;3.03;;;25.10;35.80;;;;;;5094959;28;20031;-53
2022/04/08 11:33:17;;;;;;;7.30;2.38;;;25.00;37.10;;;;;;5095246;28;20092;-53
2022/04/08 11:35:44;;;;;;;15.48;3.80;;;25.30;36.30;;;;;;5092399;28;20515;-53
2022/04/08 11:38:13;;;;;;;11.13;2.40;;;26.00;38.90;;;;;;5095283;28;20032;-53
2022/04/08 11:40:39;;;;;;;7.10;1.90;;;25.70;37.80;;;;;;5094236;28;20033;-53
2022/04/08 11:43:06;;;;;;;2.92;1.30;;;25.70;37.20;;;;;;5094188;28;20548;-53
2022/04/08 11:45:32;;;;;;;4.85;1.70;;;25.30;35.70;;;;;;5093911;28;20024;-53
2022/04/08 11:47:58;;;;;;;3.47;1.60;;;24.70;37.60;;;;;;5093478;28;20496;-53
2022/04/08 11:50:26;;;;;;;8.32;2.55;;;24.30;37.40;;;;;;5094187;28;20032;-53
2022/04/08 11:52:57;;;;;;;9.65;2.72;;;24.30;38.60;;;;;;5094020;28;20107;-53
2022/04/08 11:55:24;;;;;;;4.55;2.05;;;24.00;39.60;;;;;;5091561;28;20104;-53
2022/04/08 11:57:51;;;;;;;7.93;2.35;;;24.00;39.40;;;;;;5091375;28;20114;-53
2022/04/08 12:00:22;;;;;;;10.65;2.47;;;24.00;40.50;;;;;;5081296;28;20032;-53
2022/04/08 12:02:49;;;;;;;7.10;2.03;;;24.30;41.20;;;;;;5081243;28;20028;-53
2022/04/08 12:05:24;;;;;;;19.52;3.80;;;24.10;37.20;;;;;;5083485;28;20458;-53
2022/04/08 12:07:52;;;;;;;6.90;2.35;;;24.30;37.90;;;;;;5081466;28;20495;-53
2022/04/08 12:10:20;;;;;;;11.27;2.10;;;24.60;40.60;;;;;;5081704;28;20032;-53
2022/04/08 12:12:46;;;;;;;6.45;2.33;;;24.30;40.40;;;;;;5073960;28;20024;-53
2022/04/08 12:15:13;;;;;;;6.90;2.72;;;23.80;39.10;;;;;;5091031;28;20020;-53
2022/04/08 12:17:46;;;;;;;13.77;3.15;;;23.80;41.30;;;;;;5094169;28;20393;-53
2022/04/08 12:20:17;;;;;;;15.43;4.97;;;24.30;43.30;;;;;;5087751;28;20302;-53
2022/04/08 12:22:49;;;;;;;16.27;4.10;;;24.80;42.00;;;;;;5093830;28;20032;-53
2022/04/08 12:25:19;;;;;;;5.40;2.25;;;25.00;40.40;;;;;;5094334;28;20036;-53
2022/04/08 12:27:56;;;;;;;6.80;2.50;;;25.40;39.40;;;;;;5086976;28;20363;-54
2022/04/08 12:30:34;;;;;;;12.38;3.35;;;25.60;39.10;;;;;;5084706;28;20039;-53
2022/04/08 12:33:00;;;;;;;6.32;2.75;;;25.10;37.70;;;;;;5092663;28;20032;-53
2022/04/08 12:35:27;;;;;;;8.32;2.67;;;24.50;40.10;;;;;;5094581;28;20045;-53
2022/04/08 12:37:54;;;;;;;4.35;1.85;;;23.80;39.50;;;;;;5094075;28;20408;-53
2022/04/08 12:40:20;;;;;;;6.22;2.25;;;23.60;39.00;;;;;;5095157;28;20024;-53
2022/04/08 12:42:46;;;;;;;4.82;2.17;;;23.40;39.30;;;;;;5094544;28;20028;-53
2022/04/08 12:45:12;;;;;;;11.82;4.05;;;23.50;40.30;;;;;;5094886;28;20035;-53